createdAt,value
2023-04-19T00:00:03.404Z,69.30227
2023-04-19T00:05:05.312Z,68.66513
2023-04-19T00:10:06.743Z,69.30252
2023-04-19T00:15:08.277Z,70.80845
2023-04-19T00:20:09.773Z,71.78846
2023-04-19T00:25:11.334Z,73.11585
2023-04-19T00:30:12.741Z,72.16258
2023-04-19T00:35:14.093Z,73.75242
2023-04-19T00:40:15.509Z,70.74094
2023-04-19T00:45:16.783Z,72.92176
2023-04-19T00:50:18.284Z,72.65546
2023-04-19T00:55:19.557Z,74.05596
2023-04-19T01:00:21.111Z,73.13305
2023-04-19T01:05:22.580Z,76.17694
2023-04-19T01:10:24.063Z,76.3822
2023-04-19T01:15:25.374Z,77.86174
2023-04-19T01:20:26.838Z,76.26994
2023-04-19T01:25:28.110Z,76.16992
2023-04-19T01:30:29.706Z,74.33901
2023-04-19T01:35:31.570Z,73.39699
2023-04-19T01:40:33.213Z,74.67324
2023-04-19T01:45:34.543Z,71.77989
2023-04-19T01:50:35.843Z,72.97951
2023-04-19T01:55:37.263Z,77.10959
2023-04-19T02:00:38.730Z,78.7454
2023-04-19T02:05:40.145Z,77.98995
2023-04-19T02:10:41.475Z,78.77372
2023-04-19T02:15:42.744Z,78.16927
2023-04-19T02:20:44.042Z,79.96667
2023-04-19T02:25:45.595Z,77.28733
2023-04-19T02:30:46.933Z,76.69591
2023-04-19T02:35:48.876Z,76.58731
2023-04-19T02:40:50.124Z,76.61163
2023-04-19T02:45:51.603Z,77.72604
2023-04-19T02:50:53.163Z,78.26035
2023-04-19T02:55:54.462Z,78.57145
2023-04-19T03:00:55.716Z,78.31541
2023-04-19T03:05:57.597Z,79.78102
2023-04-19T03:10:59.112Z,78.86211
2023-04-19T03:16:00.421Z,80.11649
2023-04-19T03:21:01.896Z,79.91956
2023-04-19T03:26:03.349Z,77.82031
2023-04-19T03:31:04.741Z,78.79191
2023-04-19T03:36:06.085Z,79.28275
2023-04-19T03:41:07.634Z,79.85595
2023-04-19T03:46:09.129Z,77.53588
2023-04-19T03:51:10.527Z,81.27806
2023-04-19T03:56:11.791Z,81.93578
2023-04-19T04:01:13.166Z,83.41159
2023-04-19T04:06:14.468Z,81.18713
2023-04-19T04:11:15.861Z,79.09085
2023-04-19T04:16:17.163Z,81.52888
2023-04-19T04:21:18.764Z,82.98644
2023-04-19T04:26:20.305Z,84.516
2023-04-19T04:31:21.926Z,87.72551
2023-04-19T04:36:23.718Z,89.10202
2023-04-19T04:41:25.089Z,84.93359
2023-04-19T04:46:26.418Z,93.28471
2023-04-19T04:51:27.845Z,91.97398
2023-04-19T04:56:29.211Z,88.28087
2023-04-19T05:01:30.640Z,89.20746
2023-04-19T05:06:31.990Z,93.2314
2023-04-19T05:11:33.284Z,95.61567
2023-04-19T05:16:34.616Z,93.7553
2023-04-19T05:21:36.172Z,90.68623
2023-04-19T05:26:37.774Z,85.91028
2023-04-19T05:31:39.320Z,90.59938
2023-04-19T05:36:40.945Z,83.11253
2023-04-19T05:41:42.261Z,85.25526
2023-04-19T05:46:43.665Z,85.10431
2023-04-19T05:51:45.032Z,85.33182
2023-04-19T05:56:46.306Z,85.70059
2023-04-19T06:01:47.673Z,83.58253
2023-04-19T06:06:49.235Z,83.34355
2023-04-19T06:11:51.784Z,79.28831
2023-04-19T06:16:53.501Z,74.37092
2023-04-19T06:21:55.073Z,73.55107
2023-04-19T06:26:56.645Z,72.40606
2023-04-19T06:31:58.072Z,72.48399
2023-04-19T06:36:59.715Z,72.73263
2023-04-19T06:42:01.316Z,70.03092
2023-04-19T06:47:03.064Z,69.50584
2023-04-19T06:52:04.161Z,67.25024
2023-04-19T06:57:05.554Z,61.945
2023-04-19T07:02:06.871Z,63.33504
2023-04-19T07:07:08.424Z,62.41878
2023-04-19T07:12:09.851Z,58.81377
2023-04-19T07:17:11.324Z,56.7531
2023-04-19T07:22:14.659Z,54.08626
2023-04-19T07:27:16.387Z,52.82358
2023-04-19T07:32:17.745Z,51.24313
2023-04-19T07:37:19.479Z,50.13689
2023-04-19T07:42:21.043Z,48.9377
2023-04-19T07:47:22.610Z,43.94954
2023-04-19T07:52:23.950Z,42.09418
2023-04-19T07:57:25.532Z,42.82765
2023-04-19T08:02:27.205Z,43.80195
2023-04-19T08:07:28.579Z,40.03863
2023-04-19T08:12:37.256Z,42.13514
2023-04-19T08:17:42.050Z,39.73633
2023-04-19T08:22:44.196Z,40.04176
2023-04-19T08:27:45.840Z,39.56574
2023-04-19T08:32:47.417Z,37.96336
2023-04-19T08:37:49.403Z,37.01993
2023-04-19T08:42:50.818Z,38.22081
2023-04-19T08:48:00.526Z,34.4641
2023-04-19T08:53:12.032Z,33.49747
2023-04-19T08:58:30.684Z,35.55119
2023-04-19T09:03:44.306Z,33.69134
2023-04-19T09:08:52.707Z,32.55891
2023-04-19T09:13:54.130Z,33.54168
2023-04-19T09:19:02.448Z,33.01205
2023-04-19T09:24:04.617Z,31.78974
2023-04-19T09:29:06.198Z,32.17759
2023-04-19T09:34:07.727Z,31.37729
2023-04-19T09:39:09.661Z,30.83687
2023-04-19T09:44:44.598Z,29.92217
2023-04-19T09:50:08.900Z,30.49479
2023-04-19T09:55:26.728Z,29.90121
2023-04-19T10:00:36.149Z,28.0449
2023-04-19T10:05:43.685Z,27.03274
2023-04-19T10:10:45.637Z,25.42484
2023-04-19T10:15:52.490Z,27.30608
2023-04-19T10:20:56.852Z,26.64828
2023-04-19T10:25:58.455Z,27.04184
2023-04-19T10:30:59.858Z,27.02449
2023-04-19T10:36:01.216Z,23.73879
2023-04-19T10:41:02.768Z,25.00164
2023-04-19T10:46:04.040Z,23.79699
2023-04-19T10:51:05.410Z,25.77773
2023-04-19T10:56:06.750Z,25.48032
2023-04-19T11:01:08.358Z,26.16917
2023-04-19T11:06:09.930Z,23.96635
2023-04-19T11:11:11.867Z,24.26911
2023-04-19T11:16:13.479Z,24.3874
2023-04-19T11:21:15.092Z,24.42023
2023-04-19T11:26:16.729Z,23.431
2023-04-19T11:31:18.335Z,25.00244
2023-04-19T11:36:19.885Z,24.26466
2023-04-19T11:41:21.465Z,25.54152
2023-04-19T11:46:23.039Z,24.26396
2023-04-19T11:51:24.511Z,22.90114
2023-04-19T11:56:25.896Z,23.78261
2023-04-19T12:01:27.165Z,24.40973
2023-04-19T12:06:28.547Z,24.35281
2023-04-19T12:11:30.074Z,25.0097
2023-04-19T12:16:31.492Z,23.89573
2023-04-19T12:21:32.937Z,25.85346
2023-04-19T12:26:34.756Z,24.55452
2023-04-19T12:31:36.115Z,24.56011
2023-04-19T12:36:37.528Z,23.71854
2023-04-19T12:41:39.516Z,24.63844
2023-04-19T12:46:41.185Z,24.11948
2023-04-19T12:51:43.157Z,23.43164
2023-04-19T12:56:44.843Z,22.91318
2023-04-19T13:01:46.496Z,23.57183
2023-04-19T13:06:48.118Z,22.86046
2023-04-19T13:11:49.919Z,24.18468
2023-04-19T13:16:51.394Z,23.79806
2023-04-19T13:21:52.712Z,23.59789
2023-04-19T13:26:54.130Z,24.20221
2023-04-19T13:31:55.510Z,24.5166
2023-04-19T13:36:57.198Z,23.37321
2023-04-19T13:41:59.162Z,23.36547
2023-04-19T13:47:00.672Z,23.4755
2023-04-19T13:52:02.232Z,23.83676
2023-04-19T13:57:03.533Z,23.86072
2023-04-19T14:02:04.977Z,23.65779
2023-04-19T14:07:06.595Z,24.879
2023-04-19T14:12:08.190Z,25.22043
2023-04-19T14:17:09.622Z,24.2821
2023-04-19T14:22:11.050Z,24.34127
2023-04-19T14:27:12.513Z,24.03966
2023-04-19T14:32:25.316Z,25.76493
2023-04-19T14:37:28.077Z,24.99724
2023-04-19T14:42:29.710Z,26.50658
2023-04-19T14:47:31.284Z,24.54769
2023-04-19T14:52:32.870Z,25.53909
2023-04-19T14:57:34.530Z,27.76872
2023-04-19T15:02:36.310Z,26.54306
2023-04-19T15:07:37.957Z,27.40743
2023-04-19T15:12:39.861Z,28.67208
2023-04-19T15:17:41.498Z,30.63668
2023-04-19T15:22:43.127Z,30.76378
2023-04-19T15:27:44.828Z,31.54133
2023-04-19T15:32:46.390Z,30.86109
2023-04-19T15:37:47.945Z,31.35331
2023-04-19T15:42:49.528Z,32.98193
2023-04-19T15:47:51.134Z,32.7446
2023-04-19T15:52:52.481Z,33.56409
2023-04-19T15:57:53.767Z,34.02893
2023-04-19T16:02:55.141Z,34.67905
2023-04-19T16:07:56.614Z,35.27115
2023-04-19T16:12:57.901Z,35.24004
2023-04-19T16:17:59.406Z,34.6308
2023-04-19T16:23:00.750Z,34.90194
2023-04-19T16:28:02.053Z,34.7154
2023-04-19T16:33:03.537Z,35.4287
2023-04-19T16:38:05.032Z,35.09494
2023-04-19T16:43:06.765Z,34.62253
2023-04-19T16:48:08.459Z,34.42127
2023-04-19T16:53:10.218Z,33.97678
2023-04-19T16:58:11.774Z,35.19289
2023-04-19T17:03:13.449Z,36.01983
2023-04-19T17:08:15.106Z,37.84475
2023-04-19T17:13:16.664Z,37.48108
2023-04-19T17:18:18.239Z,38.75888
2023-04-19T17:23:19.904Z,39.08491
2023-04-19T17:28:21.618Z,37.03146
2023-04-19T17:33:23.165Z,36.13174
2023-04-19T17:38:24.718Z,36.13721
2023-04-19T17:43:26.029Z,36.1749
2023-04-19T17:48:27.473Z,37.90787
2023-04-19T17:53:29.025Z,37.66485
2023-04-19T17:58:30.744Z,38.08744
2023-04-19T18:03:32.264Z,38.941
2023-04-19T18:08:33.942Z,39.8841
2023-04-19T18:13:35.549Z,39.7861
2023-04-19T18:18:37.124Z,40.97199
2023-04-19T18:23:38.730Z,40.7724
2023-04-19T18:28:40.346Z,42.50676
2023-04-19T18:33:41.950Z,41.76377
2023-04-19T18:38:43.492Z,41.95319
2023-04-19T18:44:06.626Z,42.69073
2023-04-19T18:49:15.989Z,43.74533
2023-04-19T18:54:18.084Z,42.85163
2023-04-19T18:59:19.803Z,46.67015
2023-04-19T19:04:43.020Z,46.71426
2023-04-19T19:09:56.290Z,45.42538
2023-04-19T19:14:58.312Z,46.45644
2023-04-19T19:19:59.678Z,46.21378
2023-04-19T19:25:01.167Z,46.28168
2023-04-19T19:30:02.530Z,46.1975
2023-04-19T19:35:07.334Z,43.85254
2023-04-19T19:40:10.941Z,44.05367
2023-04-19T19:45:12.583Z,44.82368
2023-04-19T19:51:00.875Z,44.35754
2023-04-19T19:56:21.443Z,43.77321
2023-04-19T20:01:23.578Z,44.44486
2023-04-19T20:07:21.431Z,45.15102
2023-04-19T20:12:30.733Z,46.63246
2023-04-19T20:17:32.194Z,46.09043
2023-04-19T20:22:33.531Z,47.17618
2023-04-19T20:27:34.885Z,47.00212
2023-04-19T20:32:36.195Z,46.2573
2023-04-19T20:37:37.593Z,46.4543
2023-04-19T20:42:39.045Z,47.76428
2023-04-19T20:47:40.410Z,50.07087
2023-04-19T20:52:41.817Z,49.75966
2023-04-19T20:57:43.531Z,50.337
2023-04-19T21:02:45.049Z,49.69158
2023-04-19T21:07:46.808Z,50.98946
2023-04-19T21:12:48.378Z,50.99291
2023-04-19T21:17:49.869Z,51.72504
2023-04-19T21:22:51.286Z,50.1318
2023-04-19T21:27:52.624Z,51.32996
2023-04-19T21:32:53.956Z,51.29708
2023-04-19T21:37:55.255Z,52.2819
2023-04-19T21:42:57.137Z,52.45454
2023-04-19T21:47:58.731Z,53.21323
2023-04-19T21:53:00.114Z,53.30356
2023-04-19T21:58:01.572Z,52.70261
2023-04-19T22:03:03.265Z,53.1599
2023-04-19T22:08:04.695Z,53.84055
2023-04-19T22:13:06.355Z,54.27674
2023-04-19T22:18:07.666Z,52.47457
2023-04-19T22:23:09.922Z,52.68046
2023-04-19T22:28:11.855Z,52.67933
2023-04-19T22:33:13.336Z,53.78425
2023-04-19T22:38:14.915Z,54.98817
2023-04-19T22:43:16.495Z,54.34911
2023-04-19T22:48:18.211Z,54.02646
2023-04-19T22:53:19.756Z,52.89902
2023-04-19T22:58:21.196Z,52.46419
2023-04-19T23:03:23.109Z,52.89378
2023-04-19T23:08:24.696Z,53.23701
2023-04-19T23:13:26.251Z,53.07114
2023-04-19T23:18:27.956Z,53.80815
2023-04-19T23:23:29.540Z,53.89169
2023-04-19T23:28:30.829Z,56.28801
2023-04-19T23:33:32.730Z,56.81176
2023-04-19T23:38:34.396Z,57.66137
2023-04-19T23:43:36.054Z,56.1321
2023-04-19T23:48:37.626Z,56.68464
2023-04-19T23:53:39.190Z,58.0562
2023-04-19T23:58:40.606Z,57.4621
